ADDS METAR Data INFO
IDs: Format: Raw Decoded Include TAF

Data at: 1047 UTC 19 Oct 2017

KK88 191035Z AUTO 00000KT 10SM CLR 10/08 A3012 RMK AO1 T00960079
KK88 191015Z AUTO 00000KT 10SM CLR 10/08 A3012 RMK AO1 T00960080
KK88 190955Z AUTO 00000KT 10SM CLR 10/08 A3011 RMK AO1 T00970077
KK88 190935Z AUTO 00000KT 10SM CLR 11/08 A3011 RMK AO1 T01050080
KK88 190915Z AUTO 00000KT 10SM CLR 10/08 A3011 RMK AO1 T01030080
KK88 190855Z AUTO 00000KT 10SM CLR 11/08 A3011 RMK AO1 T01060080
KK88 190835Z AUTO 00000KT 10SM CLR 11/08 A3011 RMK AO1 T01080080
KK88 190815Z AUTO 00000KT 10SM CLR 11/08 A3011 RMK AO1 T01090080
KK88 190755Z AUTO 00000KT 10SM CLR 11/08 A3011 RMK AO1 T01100080
KK88 190735Z AUTO 00000KT 10SM CLR 11/08 A3010 RMK AO1 T01100081
KK88 190715Z AUTO 00000KT 10SM CLR 11/08 A3010 RMK AO1 T01090078
KK88 190655Z AUTO 00000KT 10SM CLR 11/08 A3010 RMK AO1 T01060080
KK88 190635Z AUTO 00000KT 10SM CLR 11/08 A3010 RMK AO1 T01130077
KK88 190615Z AUTO 00000KT 10SM CLR 12/08 A3010 RMK AO1 T01200080
KK88 190555Z AUTO 00000KT 10SM CLR 12/08 A3010 RMK AO1 T01180080 10188 20116
KK88 190535Z AUTO 00000KT 10SM CLR 12/08 A3009 RMK AO1 T01220082
KK88 190515Z AUTO 00000KT 10SM CLR 13/08 A3009 RMK AO1 T01250082
KK88 190455Z AUTO 00000KT 10SM CLR 13/09 A3010 RMK AO1 T01270085 402340086
KK88 190435Z AUTO 00000KT 10SM CLR 14/09 A3009 RMK AO1 T01350085
KK88 190415Z AUTO 00000KT 10SM CLR 14/09 A3009 RMK AO1 T01420085
KK88 190355Z AUTO 00000KT 10SM CLR 14/09 A3009 RMK AO1 T01440087
KK88 190335Z AUTO 00000KT 10SM CLR 15/09 A3008 RMK AO1 T01450090
KK88 190315Z AUTO 00000KT 10SM CLR 15/09 A3007 RMK AO1 T01510091
KK88 190255Z AUTO 00000KT 10SM CLR 16/09 A3007 RMK AO1 T01560091
KK88 190235Z AUTO 00000KT 10SM CLR 16/09 A3007 RMK AO1 T01610092
KK88 190215Z AUTO 18007KT 10SM CLR 16/09 A3006 RMK AO1 T01610094
KK88 190155Z AUTO 00000KT 10SM CLR 16/10 A3006 RMK AO1 T01610095
KK88 190135Z AUTO 00000KT 10SM CLR 17/10 A3006 RMK AO1 T01650096
KK88 190115Z AUTO 17006KT 10SM CLR 17/10 A3006 RMK AO1 T01700095
KK88 190055Z AUTO 18007KT 10SM CLR 18/10 A3005 RMK AO1 T01810095
KK88 190035Z AUTO 17010KT 10SM CLR 19/10 A3004 RMK AO1 T01850097
KK88 190015Z AUTO 17008KT 10SM CLR 19/10 A3004 RMK AO1 T01860101
KK88 182355Z AUTO 16008KT 10SM CLR 19/10 A3004 RMK AO1 T01880102 10234 20188
KK88 182335Z AUTO 16008KT 10SM CLR 19/10 A3004 RMK AO1 T01940103
KK88 182315Z AUTO 16006KT 10SM CLR 21/10 A3004 RMK AO1 T02090102
KK88 182255Z AUTO 17008KT 10SM CLR 22/10 A3004 RMK AO1 T02170099
KK88 182235Z AUTO 17007KT 10SM CLR 23/10 A3003 RMK AO1 T02250098
KK88 182215Z AUTO 17005KT 10SM CLR 22/11 A3003 RMK AO1 T02200105
KK88 182155Z AUTO 16010KT 10SM CLR 22/10 A3003 RMK AO1 T02190097
KK88 182135Z AUTO 17010G16KT 10SM 22/10 A3003 RMK AO1 T02210096
KK88 182115Z AUTO 17012KT 10SM 22/10 A3003 RMK AO1 T02200097
KK88 182055Z AUTO 18012G15KT 10SM 23/09 A3003 RMK AO1 T02340094
KK88 182035Z AUTO 19011G14KT 10SM 23/10 A3004 RMK AO1 T02280095
KK88 182015Z AUTO 17009KT 10SM CLR 22/09 A3004 RMK AO1 T02220094
KK88 181955Z AUTO 18012G16KT 10SM CLR 22/09 A3004 RMK AO1 T02180090
KK88 181935Z AUTO 18009KT 10SM 21/09 A3004 RMK AO1 T02060089
KK88 181915Z AUTO 18012G16KT 10SM 21/09 A3004 RMK AO1 T02050088
KK88 181855Z AUTO 18013G18KT 10SM 21/08 A3004 RMK AO1 T02120082
KK88 181835Z AUTO 17015G20KT 10SM 22/08 A3005 RMK AO1 T02170080
KK88 181815Z AUTO 17016G21KT 10SM CLR 21/08 A3005 RMK AO1 T02140082
KK88 181755Z AUTO 18014G21KT 10SM CLR 21/08 A3006 RMK AO1 T02080078 10209 20086
KK88 181735Z AUTO 19018G24KT 10SM 21/08 A3007 RMK AO1 T02050080
KK88 181715Z AUTO 19017G24KT 10SM 20/08 A3007 RMK AO1 T02000075
KK88 181655Z AUTO 19015G22KT 10SM 19/08 A3007 RMK AO1 T01920079
KK88 181635Z AUTO 18016G23KT 10SM 19/08 A3008 RMK AO1 T01850075
KK88 181620Z AUTO 18015G25KT 10SM 18/07 A3008 RMK AO1 T01810071
KK88 181555Z AUTO 18016G24KT 10SM 18/07 A3009 RMK AO1 T01750066
KK88 181535Z AUTO 18017G23KT 10SM 17/07 A3009 RMK AO1 T01650065
KK88 181515Z AUTO 18013G16KT 10SM 15/07 A3010 RMK AO1 T01540069
KK88 181455Z AUTO 17013G17KT 10SM 14/07 A3010 RMK AO1 T01430069
KK88 181435Z AUTO 18013G21KT 10SM 13/07 A3010 RMK AO1 T01330065
KK88 181415Z AUTO 17012G18KT 10SM CLR 12/06 A3010 RMK AO1 T01240063
KK88 181355Z AUTO 17011G15KT 10SM CLR 12/06 A3010 RMK AO1 T01150063
KK88 181335Z AUTO 17009KT 10SM CLR 11/06 A3009 RMK AO1 T01060062
KK88 181315Z AUTO 16011KT 10SM CLR 10/06 A3009 RMK AO1 T01000061
KK88 181255Z AUTO 00000KT 10SM CLR 09/06 A3009 RMK AO1 T00920060
KK88 181235Z AUTO 16007KT 10SM CLR 09/06 A3009 RMK AO1 T00900060
KK88 181215Z AUTO 16005KT 10SM 09/06 A3009 RMK AO1 T00870061
KK88 181155Z AUTO 16008KT 10SM 09/06 A3009 RMK AO1 T00870061 10118 20086
KK88 181135Z AUTO 00000KT 10SM 09/06 A3009 RMK AO1 T00860062
KK88 181115Z AUTO 00000KT 10SM CLR 09/06 A3009 RMK AO1 T00880062
KK88 181055Z AUTO 00000KT 10SM CLR 09/06 A3009 RMK AO1 T00880063
KK88 181035Z AUTO 00000KT 10SM CLR 09/06 A3010 RMK AO1 T00900063
KK88 181015Z AUTO 00000KT 10SM CLR 09/06 A3009 RMK AO1 T00910064
KK88 180955Z AUTO 00000KT 10SM CLR 09/07 A3009 RMK AO1 T00930065
KK88 180935Z AUTO 00000KT 10SM CLR 10/07 A3009 RMK AO1 T00950066
KK88 180915Z AUTO 00000KT 10SM 10/07 A3009 RMK AO1 T00980067
KK88 180855Z AUTO 00000KT 10SM 10/07 A3010 RMK AO1 T00990068
KK88 180840Z AUTO 00000KT 10SM 10/07 A3010 RMK AO1 T00970068
KK88 180815Z AUTO 00000KT 10SM CLR 10/07 A3011 RMK AO1 T00970068
KK88 180755Z AUTO 00000KT 10SM CLR 10/07 A3011 RMK AO1 T01000068
KK88 180735Z AUTO 00000KT 10SM CLR 10/07 A3011 RMK AO1 T01000067
KK88 180715Z AUTO 00000KT 10SM CLR 10/07 A3012 RMK AO1 T01030070
KK88 180655Z AUTO 00000KT 10SM CLR 11/07 A3012 RMK AO1 T01080070
KK88 180635Z AUTO 00000KT 10SM CLR 11/07 A3012 RMK AO1 T01070070
KK88 180615Z AUTO 00000KT 10SM CLR 11/07 A3012 RMK AO1 T01130070
KK88 180555Z AUTO 00000KT 10SM CLR 12/07 A3013 RMK AO1 T01180070 10159 20114
KK88 180535Z AUTO 00000KT 10SM CLR 12/07 A3013 RMK AO1 T01170068
KK88 180515Z AUTO 00000KT 10SM 12/07 A3013 RMK AO1 T01170068
KK88 180455Z AUTO 00000KT 10SM 12/07 A3013 RMK AO1 T01200070 402100066
KK88 180435Z AUTO 00000KT 10SM 12/07 A3014 RMK AO1 T01200071
KK88 180415Z AUTO 00000KT 10SM 12/07 A3014 RMK AO1 T01210073
KK88 180355Z AUTO 00000KT 10SM 12/08 A3014 RMK AO1 T01200075
KK88 180335Z AUTO 00000KT 10SM 12/08 A3014 RMK AO1 T01200075
KK88 180315Z AUTO 00000KT 10SM 12/08 A3014 RMK AO1 T01160075
KK88 180255Z AUTO 00000KT 10SM CLR 12/08 A3014 RMK AO1 T01160075
KK88 180235Z AUTO 00000KT 10SM CLR 12/08 A3014 RMK AO1 T01170075
KK88 180215Z AUTO 00000KT 10SM CLR 12/08 A3013 RMK AO1 T01170075
KK88 180155Z AUTO 00000KT 10SM CLR 13/07 A3013 RMK AO1 T01250074
KK88 180135Z AUTO 00000KT 10SM CLR 14/08 A3013 RMK AO1 T01350075
KK88 180115Z AUTO 00000KT 10SM CLR 14/08 A3013 RMK AO1 T01400076
KK88 180055Z AUTO 00000KT 10SM CLR 15/08 A3013 RMK AO1 T01450079
KK88 180035Z AUTO 00000KT 10SM CLR 15/08 A3013 RMK AO1 T01450082
KK88 180015Z AUTO 00000KT 10SM CLR 15/08 A3012 RMK AO1 T01460082
KK88 172355Z AUTO 00000KT 10SM CLR 16/08 A3012 RMK AO1 T01610080 10210 20161
KK88 172335Z AUTO 00000KT 10SM CLR 17/08 A3012 RMK AO1 T01720080
KK88 172315Z AUTO 17007G14KT 10SM CLR 19/07 A3012 RMK AO1 T01860073
KK88 172255Z AUTO 17010KT 10SM CLR 19/08 A3012 RMK AO1 T01940075